Colorado Springs, Colorado
Current Conditions -  °F | °C
As of 10:54 PM on Thursday 27 Nov 2014 (Local Time) from KCOS Reporting Station
Scattered Clouds Scattered Clouds  
Wind Chill: 52°   Ceiling: Unl
Heat Index: 52°   Visibility: 10mi
Dew Point: 13°   Wind: 3mph
Humidity: 21%   Direction: NA
Pressure: 30.16"   Gusts: NA
Location:  38.83°N, 104.82°W
Report Text: KCOS 280554Z VRB03KT 10SM FEW190 SCT230 11/M11 A3016 RMK AO2 SLP156 T01111106 10167 20072 58007
Loading
Personal Weather Stations






























Interactive Weather Map New forecast layout! Learn more

10-Day Weather Forecast

Advertisements
Track Severe Weather on mobile